Time;durP1;ratioP1;P1;durP2;ratioP2;P2;SDS_P1;SDS_P2;PMS_P1;PMS_P2;Temp;Humidity;BMP_temperature;BMP_pressure;BME280_temperature;BME280_humidity;BME280_pressure;Samples;Min_cycle;Max_cycle;Signal;HPM_P1;HPM_P2
2021/10/30 00:01:17;;;;;;;31.20;25.37;;;;;;;;;;5075530;28;20236;-61
2021/10/30 00:03:42;;;;;;;28.70;25.80;;;;;;;;;;5075267;28;20288;-61
2021/10/30 00:06:08;;;;;;;26.67;23.97;;;;;;;;;;5075627;28;20234;-60
2021/10/30 00:08:33;;;;;;;26.63;23.73;;;;;;;;;;5074259;28;20247;-61
2021/10/30 00:10:59;;;;;;;30.60;25.80;;;;;;;;;;5075125;28;20672;-62
2021/10/30 00:13:25;;;;;;;27.50;24.80;;;;;;;;;;5075454;28;20223;-62
2021/10/30 00:15:50;;;;;;;27.77;25.00;;;;;;;;;;5075298;28;20312;-61
2021/10/30 00:18:15;;;;;;;27.63;23.90;;;;;;;;;;5075392;28;20228;-61
2021/10/30 00:20:41;;;;;;;27.57;24.87;;;;;;;;;;5074809;28;20324;-61
2021/10/30 00:23:06;;;;;;;27.50;24.50;;;;;;;;;;5075232;28;20242;-61
2021/10/30 00:25:31;;;;;;;25.23;22.60;;;;;;;;;;5075363;28;20224;-61
2021/10/30 00:27:56;;;;;;;25.90;23.10;;;;;;;;;;5074749;28;20220;-61
2021/10/30 00:30:22;;;;;;;25.60;23.23;;;;;;;;;;5074951;28;20331;-61
2021/10/30 00:32:47;;;;;;;26.00;23.37;;;;;;;;;;5074725;28;20299;-62
2021/10/30 00:35:12;;;;;;;26.87;23.97;;;;;;;;;;5075051;28;20220;-62
2021/10/30 00:37:38;;;;;;;27.53;24.70;;;;;;;;;;5074564;28;20222;-61
2021/10/30 00:40:04;;;;;;;26.07;23.60;;;;;;;;;;5074835;28;20251;-62
2021/10/30 00:42:29;;;;;;;27.87;25.00;;;;;;;;;;5074978;28;20278;-61
2021/10/30 00:44:54;;;;;;;27.07;24.20;;;;;;;;;;5074450;28;20459;-62
2021/10/30 00:47:20;;;;;;;27.83;25.03;;;;;;;;;;5074862;28;20257;-62
2021/10/30 00:49:45;;;;;;;26.83;24.03;;;;;;;;;;5074490;28;20540;-62
2021/10/30 00:52:13;;;;;;;27.80;24.90;;;;;;;;;;5074801;28;20299;-61
2021/10/30 00:54:40;;;;;;;29.73;26.70;;;;;;;;;;5074231;28;20291;-61
2021/10/30 00:57:06;;;;;;;30.10;27.30;;;;;;;;;;5073726;28;20450;-62
2021/10/30 00:59:31;;;;;;;29.03;26.13;;;;;;;;;;5074559;28;20469;-61
2021/10/30 01:01:57;;;;;;;27.97;25.10;;;;;;;;;;5073839;28;20459;-62
2021/10/30 01:04:23;;;;;;;27.97;25.17;;;;;;;;;;5074282;28;20311;-62
2021/10/30 01:06:51;;;;;;;26.87;24.10;;;;;;;;;;5074066;28;20462;-61
2021/10/30 01:09:20;;;;;;;27.03;24.30;;;;;;;;;;5073206;28;20227;-61
2021/10/30 01:11:46;;;;;;;27.87;25.07;;;;;;;;;;5073677;28;20554;-61
2021/10/30 01:14:11;;;;;;;32.30;24.53;;;;;;;;;;5074064;28;20573;-62
2021/10/30 01:16:37;;;;;;;27.03;24.40;;;;;;;;;;5073752;28;20723;-61
2021/10/30 01:19:03;;;;;;;27.83;24.93;;;;;;;;;;5074138;28;20301;-61
2021/10/30 01:21:30;;;;;;;26.53;23.83;;;;;;;;;;5073883;28;20466;-61
2021/10/30 01:23:56;;;;;;;26.27;23.30;;;;;;;;;;5073639;28;20233;-61
2021/10/30 01:26:22;;;;;;;28.17;25.30;;;;;;;;;;5074125;28;20463;-61
2021/10/30 01:28:48;;;;;;;28.63;25.70;;;;;;;;;;5073457;28;20896;-62
2021/10/30 01:31:14;;;;;;;26.70;24.00;;;;;;;;;;5073993;28;20227;-61
2021/10/30 01:33:42;;;;;;;28.07;25.30;;;;;;;;;;5073735;28;20450;-60
2021/10/30 01:36:08;;;;;;;27.43;24.47;;;;;;;;;;5074135;28;20240;-62
2021/10/30 01:38:33;;;;;;;27.77;24.30;;;;;;;;;;5074029;28;20458;-62
2021/10/30 01:40:58;;;;;;;27.90;25.03;;;;;;;;;;5073520;28;20504;-61
2021/10/30 01:43:24;;;;;;;28.40;25.40;;;;;;;;;;5073681;28;20631;-62
2021/10/30 01:45:49;;;;;;;29.10;26.13;;;;;;;;;;5073480;28;20224;-62
2021/10/30 01:48:15;;;;;;;26.30;23.70;;;;;;;;;;5073636;28;20647;-62
2021/10/30 01:50:41;;;;;;;25.47;22.80;;;;;;;;;;5073382;28;20221;-62
2021/10/30 01:53:08;;;;;;;25.83;23.30;;;;;;;;;;5073799;28;20246;-61
2021/10/30 01:55:36;;;;;;;25.43;22.90;;;;;;;;;;5073814;28;20795;-62
2021/10/30 01:58:02;;;;;;;29.63;26.50;;;;;;;;;;5072156;28;20572;-62
2021/10/30 02:00:27;;;;;;;29.70;25.27;;;;;;;;;;5073606;28;20530;-61
2021/10/30 02:02:52;;;;;;;28.57;25.17;;;;;;;;;;5073381;28;20646;-61
2021/10/30 02:05:18;;;;;;;29.87;26.77;;;;;;;;;;5073666;28;20235;-62
2021/10/30 02:07:43;;;;;;;28.97;25.83;;;;;;;;;;5073257;28;20254;-62
2021/10/30 02:10:10;;;;;;;29.27;26.47;;;;;;;;;;5072402;28;20228;-61
2021/10/30 02:12:36;;;;;;;28.97;26.07;;;;;;;;;;5073490;28;20212;-61
2021/10/30 02:15:02;;;;;;;29.00;26.13;;;;;;;;;;5073176;28;20457;-61
2021/10/30 02:17:28;;;;;;;27.50;24.70;;;;;;;;;;5073840;28;20205;-61
2021/10/30 02:19:53;;;;;;;27.43;24.73;;;;;;;;;;5073374;28;20998;-62
2021/10/30 02:22:18;;;;;;;27.90;25.03;;;;;;;;;;5073390;28;20743;-62
2021/10/30 02:24:43;;;;;;;26.47;23.60;;;;;;;;;;5072931;28;20300;-62
2021/10/30 02:27:09;;;;;;;28.80;25.87;;;;;;;;;;5073570;28;20222;-61
2021/10/30 02:29:34;;;;;;;28.10;25.27;;;;;;;;;;5073636;28;20224;-62
2021/10/30 02:32:01;;;;;;;29.33;26.17;;;;;;;;;;5073621;28;20232;-61
2021/10/30 02:34:27;;;;;;;27.13;24.37;;;;;;;;;;5077399;28;20228;-62
2021/10/30 02:36:52;;;;;;;27.77;24.87;;;;;;;;;;5076793;28;20455;-61
2021/10/30 02:39:17;;;;;;;28.50;24.17;;;;;;;;;;5077275;28;20231;-62
2021/10/30 02:41:43;;;;;;;29.00;26.17;;;;;;;;;;5076564;28;20231;-61
2021/10/30 02:44:08;;;;;;;25.90;23.17;;;;;;;;;;5076911;28;20228;-61
2021/10/30 02:46:33;;;;;;;28.33;25.47;;;;;;;;;;5077059;28;20307;-63
2021/10/30 02:48:58;;;;;;;27.80;24.90;;;;;;;;;;5076744;28;20231;-62
2021/10/30 02:51:24;;;;;;;26.17;23.40;;;;;;;;;;5076829;28;20226;-61
2021/10/30 02:53:50;;;;;;;28.70;25.77;;;;;;;;;;5076717;28;20219;-61
2021/10/30 02:56:15;;;;;;;27.13;24.33;;;;;;;;;;5077098;28;20357;-61
2021/10/30 02:58:41;;;;;;;27.97;25.17;;;;;;;;;;5076705;28;20224;-62
2021/10/30 03:01:06;;;;;;;27.80;24.80;;;;;;;;;;5076047;28;20602;-62
2021/10/30 03:03:31;;;;;;;28.37;25.50;;;;;;;;;;5076659;28;20679;-63
2021/10/30 03:05:57;;;;;;;30.40;27.00;;;;;;;;;;5075967;28;20305;-62
2021/10/30 03:08:22;;;;;;;28.60;25.50;;;;;;;;;;5076655;28;20227;-62
2021/10/30 03:10:47;;;;;;;26.07;23.40;;;;;;;;;;5076030;28;20228;-62
2021/10/30 03:13:12;;;;;;;25.27;22.77;;;;;;;;;;5076372;28;20295;-62
2021/10/30 03:15:38;;;;;;;27.73;24.97;;;;;;;;;;5076099;28;20217;-62
2021/10/30 03:18:03;;;;;;;29.10;26.10;;;;;;;;;;5075964;28;20221;-62
2021/10/30 03:20:28;;;;;;;27.43;24.60;;;;;;;;;;5076307;28;20292;-62
2021/10/30 03:22:54;;;;;;;27.17;24.47;;;;;;;;;;5075832;28;20354;-62
2021/10/30 03:25:19;;;;;;;28.03;25.00;;;;;;;;;;5076076;28;20353;-63
2021/10/30 03:27:44;;;;;;;28.97;26.07;;;;;;;;;;5076224;28;20224;-62
2021/10/30 03:30:10;;;;;;;29.80;24.80;;;;;;;;;;5076139;28;20217;-61
2021/10/30 03:32:36;;;;;;;27.80;23.83;;;;;;;;;;5076555;28;20223;-61
2021/10/30 03:35:02;;;;;;;26.70;24.00;;;;;;;;;;5075934;28;20936;-61
2021/10/30 03:37:27;;;;;;;27.27;24.40;;;;;;;;;;5076176;28;20540;-61
2021/10/30 03:39:53;;;;;;;27.83;24.03;;;;;;;;;;5075954;28;20459;-62
2021/10/30 03:42:18;;;;;;;30.13;25.10;;;;;;;;;;5076289;28;20563;-62
2021/10/30 03:44:44;;;;;;;27.87;23.90;;;;;;;;;;5075776;28;20219;-62
2021/10/30 03:47:09;;;;;;;28.10;25.07;;;;;;;;;;5075166;28;20481;-62
2021/10/30 03:49:34;;;;;;;26.27;23.63;;;;;;;;;;5075860;28;20712;-62
2021/10/30 03:51:59;;;;;;;26.07;23.37;;;;;;;;;;5075378;28;20224;-62
2021/10/30 03:54:25;;;;;;;26.83;24.13;;;;;;;;;;5075871;28;20229;-62
2021/10/30 03:56:50;;;;;;;27.87;24.93;;;;;;;;;;5075543;28;20623;-62
2021/10/30 03:59:15;;;;;;;26.37;23.77;;;;;;;;;;5075725;28;20237;-62
2021/10/30 04:01:41;;;;;;;28.43;25.17;;;;;;;;;;5075814;28;20632;-62
2021/10/30 04:04:06;;;;;;;26.80;24.20;;;;;;;;;;5075018;28;20311;-62
2021/10/30 04:06:31;;;;;;;25.60;23.00;;;;;;;;;;5075604;28;20238;-62
2021/10/30 04:08:56;;;;;;;29.63;23.63;;;;;;;;;;5074936;28;20286;-61
2021/10/30 04:11:22;;;;;;;27.23;24.43;;;;;;;;;;5075428;28;20232;-61
2021/10/30 04:13:47;;;;;;;29.10;24.70;;;;;;;;;;5075109;28;20621;-62
2021/10/30 04:16:13;;;;;;;25.97;23.30;;;;;;;;;;5075471;28;20662;-62
2021/10/30 04:18:39;;;;;;;27.00;24.03;;;;;;;;;;5058015;28;20220;-63
2021/10/30 04:21:04;;;;;;;27.30;24.00;;;;;;;;;;5066320;28;20509;-62
2021/10/30 04:23:29;;;;;;;23.43;20.93;;;;;;;;;;5075404;28;20253;-62
2021/10/30 04:25:54;;;;;;;25.23;22.70;;;;;;;;;;5074727;28;20220;-61
2021/10/30 04:28:21;;;;;;;25.57;23.07;;;;;;;;;;5075511;28;20220;-61
2021/10/30 04:30:46;;;;;;;25.93;23.27;;;;;;;;;;5075197;28;20239;-62
2021/10/30 04:33:14;;;;;;;25.67;22.97;;;;;;;;;;5074558;28;20538;-62
2021/10/30 04:35:42;;;;;;;24.63;22.13;;;;;;;;;;5075127;28;20213;-62
2021/10/30 04:38:07;;;;;;;23.40;21.10;;;;;;;;;;5074459;28;20859;-62
2021/10/30 04:40:32;;;;;;;26.43;23.63;;;;;;;;;;5074910;28;20463;-62
2021/10/30 04:42:58;;;;;;;27.03;22.90;;;;;;;;;;5073715;28;20600;-68
2021/10/30 04:45:24;;;;;;;26.00;23.23;;;;;;;;;;5075135;28;20236;-62
2021/10/30 04:47:49;;;;;;;25.83;22.93;;;;;;;;;;5061826;28;20486;-62
2021/10/30 04:50:14;;;;;;;26.87;23.87;;;;;;;;;;5053178;28;20225;-62
2021/10/30 04:52:40;;;;;;;25.40;22.80;;;;;;;;;;5064056;28;20283;-62
2021/10/30 04:55:06;;;;;;;26.17;23.47;;;;;;;;;;5061808;28;20720;-62
2021/10/30 04:57:31;;;;;;;28.27;25.37;;;;;;;;;;5067647;28;20228;-62
2021/10/30 04:59:56;;;;;;;25.80;23.10;;;;;;;;;;5065776;28;20481;-62
2021/10/30 05:02:22;;;;;;;24.63;22.23;;;;;;;;;;5060696;28;20299;-61
2021/10/30 05:04:47;;;;;;;23.40;21.00;;;;;;;;;;5062221;28;20285;-62
2021/10/30 05:07:12;;;;;;;23.97;21.43;;;;;;;;;;5067277;28;20567;-62
2021/10/30 05:09:38;;;;;;;25.03;22.40;;;;;;;;;;5065091;28;20241;-61
2021/10/30 05:12:03;;;;;;;26.53;23.87;;;;;;;;;;5060090;28;20739;-62
2021/10/30 05:14:28;;;;;;;24.27;22.00;;;;;;;;;;5063372;28;20231;-62
2021/10/30 05:16:54;;;;;;;24.67;22.23;;;;;;;;;;5067299;28;20233;-61
2021/10/30 05:19:19;;;;;;;25.10;22.40;;;;;;;;;;5064783;28;20220;-62
2021/10/30 05:21:45;;;;;;;28.13;22.90;;;;;;;;;;5060564;28;20279;-62
2021/10/30 05:24:11;;;;;;;25.57;22.83;;;;;;;;;;5063192;28;20572;-61
2021/10/30 05:26:36;;;;;;;23.90;21.40;;;;;;;;;;5067511;28;20296;-62
2021/10/30 05:29:01;;;;;;;24.43;21.80;;;;;;;;;;5063740;28;20323;-62
2021/10/30 05:31:26;;;;;;;23.17;20.77;;;;;;;;;;5060256;28;20224;-62
2021/10/30 05:33:52;;;;;;;26.50;22.90;;;;;;;;;;5063983;28;20271;-61
2021/10/30 05:36:19;;;;;;;25.77;23.13;;;;;;;;;;5066884;28;20685;-62
2021/10/30 05:38:48;;;;;;;26.07;23.30;;;;;;;;;;5063573;28;20590;-62
2021/10/30 05:41:16;;;;;;;24.10;21.80;;;;;;;;;;5059940;28;20506;-62
2021/10/30 05:43:41;;;;;;;24.80;22.23;;;;;;;;;;5062615;28;20483;-62
2021/10/30 05:46:07;;;;;;;24.53;22.00;;;;;;;;;;5065915;28;20902;-61
2021/10/30 05:48:33;;;;;;;25.23;21.23;;;;;;;;;;5048961;28;20234;-62
2021/10/30 05:50:58;;;;;;;25.00;22.47;;;;;;;;;;5060966;28;20467;-63
2021/10/30 05:53:24;;;;;;;24.13;21.73;;;;;;;;;;5067005;28;20478;-63
2021/10/30 05:55:49;;;;;;;25.13;22.43;;;;;;;;;;5065388;28;20290;-64
2021/10/30 05:58:14;;;;;;;22.97;20.30;;;;;;;;;;5059606;28;20303;-63
2021/10/30 06:00:39;;;;;;;25.20;22.63;;;;;;;;;;5061883;28;20569;-62
2021/10/30 06:03:05;;;;;;;23.60;20.60;;;;;;;;;;5066428;28;20312;-62
2021/10/30 06:05:30;;;;;;;24.10;21.20;;;;;;;;;;5064770;28;20659;-62
2021/10/30 06:07:56;;;;;;;23.43;21.10;;;;;;;;;;5062299;28;20301;-62
2021/10/30 06:10:21;;;;;;;24.10;21.60;;;;;;;;;;5066277;28;20228;-63
2021/10/30 06:12:48;;;;;;;25.87;23.07;;;;;;;;;;5070918;28;20451;-63
2021/10/30 06:15:13;;;;;;;26.77;20.27;;;;;;;;;;5068071;28;20254;-62
2021/10/30 06:17:39;;;;;;;23.03;20.47;;;;;;;;;;5063934;28;20870;-62
2021/10/30 06:20:04;;;;;;;24.20;21.60;;;;;;;;;;5066856;28;20232;-62
2021/10/30 06:22:30;;;;;;;25.07;22.23;;;;;;;;;;5063495;28;20684;-62
2021/10/30 06:24:55;;;;;;;22.20;19.97;;;;;;;;;;5067548;28;20240;-62
2021/10/30 06:27:21;;;;;;;23.73;20.93;;;;;;;;;;5070664;28;20589;-63
2021/10/30 06:29:46;;;;;;;24.03;21.30;;;;;;;;;;5066597;28;20320;-62
2021/10/30 06:32:12;;;;;;;24.30;21.67;;;;;;;;;;5063410;28;20456;-63
2021/10/30 06:34:37;;;;;;;23.80;21.43;;;;;;;;;;5068003;28;20308;-63
2021/10/30 06:37:02;;;;;;;24.33;21.83;;;;;;;;;;5070160;28;20224;-62
2021/10/30 06:39:28;;;;;;;23.43;21.23;;;;;;;;;;5066086;28;20240;-63
2021/10/30 06:41:53;;;;;;;24.77;20.97;;;;;;;;;;5063829;28;20229;-62
2021/10/30 06:44:19;;;;;;;24.20;21.70;;;;;;;;;;5068070;28;20237;-62
2021/10/30 06:46:44;;;;;;;23.90;21.40;;;;;;;;;;5070527;28;20217;-62
2021/10/30 06:49:11;;;;;;;23.70;21.30;;;;;;;;;;5056457;28;20449;-62
2021/10/30 06:51:38;;;;;;;25.60;19.60;;;;;;;;;;5070240;28;20274;-62
2021/10/30 06:54:04;;;;;;;31.60;21.43;;;;;;;;;;5066991;28;20451;-63
2021/10/30 06:56:29;;;;;;;23.63;21.03;;;;;;;;;;5069161;28;20462;-63
2021/10/30 06:58:54;;;;;;;24.67;21.13;;;;;;;;;;5067384;28;20235;-62
2021/10/30 07:01:19;;;;;;;25.43;19.50;;;;;;;;;;5062893;28;20311;-62
2021/10/30 07:03:45;;;;;;;23.27;20.80;;;;;;;;;;5066376;28;20237;-62
2021/10/30 07:06:11;;;;;;;22.43;20.03;;;;;;;;;;5069448;28;20220;-62
2021/10/30 07:08:36;;;;;;;23.80;20.17;;;;;;;;;;5066933;28;20227;-62
2021/10/30 07:11:02;;;;;;;22.13;19.60;;;;;;;;;;5062459;28;20478;-62
2021/10/30 07:13:27;;;;;;;22.03;19.80;;;;;;;;;;5066439;28;20640;-62
2021/10/30 07:15:52;;;;;;;24.00;20.57;;;;;;;;;;5068759;28;20304;-63
2021/10/30 07:18:18;;;;;;;42.93;32.50;;;;;;;;;;5065233;28;20231;-63
2021/10/30 07:20:43;;;;;;;25.53;22.70;;;;;;;;;;5063027;28;20307;-63
2021/10/30 07:23:08;;;;;;;26.57;23.73;;;;;;;;;;5066634;28;20238;-63
2021/10/30 07:25:33;;;;;;;25.83;23.23;;;;;;;;;;5069494;28;20703;-63
2021/10/30 07:27:59;;;;;;;21.50;19.27;;;;;;;;;;5065674;28;20227;-63
2021/10/30 07:30:24;;;;;;;21.50;19.17;;;;;;;;;;5062017;28;20239;-63
2021/10/30 07:32:53;;;;;;;22.30;20.10;;;;;;;;;;5066818;28;20610;-62
2021/10/30 07:35:19;;;;;;;21.37;19.03;;;;;;;;;;5069368;28;20295;-63
2021/10/30 07:37:45;;;;;;;26.10;20.30;;;;;;;;;;5065378;28;20548;-62
2021/10/30 07:40:11;;;;;;;20.53;18.33;;;;;;;;;;5061633;28;20470;-62
2021/10/30 07:42:36;;;;;;;23.17;20.53;;;;;;;;;;5066776;28;20279;-63
2021/10/30 07:45:03;;;;;;;23.90;20.20;;;;;;;;;;5069270;28;20232;-63
2021/10/30 07:47:28;;;;;;;22.60;20.30;;;;;;;;;;5063817;28;20686;-63
2021/10/30 07:49:53;;;;;;;25.83;20.23;;;;;;;;;;5062255;28;20463;-63
2021/10/30 07:52:21;;;;;;;24.47;21.97;;;;;;;;;;5065466;28;20533;-63
2021/10/30 07:54:46;;;;;;;21.90;19.50;;;;;;;;;;5069152;28;20217;-62
2021/10/30 07:57:12;;;;;;;21.37;19.20;;;;;;;;;;5064622;28;20472;-63
2021/10/30 07:59:38;;;;;;;22.07;19.93;;;;;;;;;;5068905;28;20225;-63
2021/10/30 08:02:04;;;;;;;21.30;19.10;;;;;;;;;;5064931;28;20238;-63
2021/10/30 08:04:30;;;;;;;23.80;21.20;;;;;;;;;;5061607;28;20492;-62
2021/10/30 08:06:55;;;;;;;26.43;18.13;;;;;;;;;;5066276;28;20799;-63
2021/10/30 08:09:20;;;;;;;23.10;20.90;;;;;;;;;;5068166;28;20236;-63
2021/10/30 08:11:46;;;;;;;24.87;19.07;;;;;;;;;;5064626;28;20307;-63
2021/10/30 08:14:11;;;;;;;21.87;19.87;;;;;;;;;;5061090;28;20622;-62
2021/10/30 08:16:37;;;;;;;22.80;20.40;;;;;;;;;;5066560;28;20578;-63
2021/10/30 08:19:03;;;;;;;20.20;18.00;;;;;;;;;;5069189;28;20220;-63
2021/10/30 08:21:29;;;;;;;20.77;18.60;;;;;;;;;;5063831;28;20556;-63
2021/10/30 08:23:54;;;;;;;23.20;20.67;;;;;;;;;;5061579;28;20454;-64
2021/10/30 08:26:19;;;;;;;23.03;20.77;;;;;;;;;;5066279;28;20221;-63
2021/10/30 08:28:45;;;;;;;20.80;18.90;;;;;;;;;;5068497;28;20610;-64
2021/10/30 08:31:10;;;;;;;21.90;19.50;;;;;;;;;;5061743;28;20282;-62
2021/10/30 08:33:36;;;;;;;20.87;18.67;;;;;;;;;;5061299;28;20630;-63
2021/10/30 08:36:03;;;;;;;22.57;19.43;;;;;;;;;;5066816;28;20235;-63
2021/10/30 08:38:28;;;;;;;22.60;20.30;;;;;;;;;;5067760;28;20556;-63
2021/10/30 08:40:59;;;;;;;21.80;19.50;;;;;;;;;;5062967;28;20506;-63
2021/10/30 08:43:25;;;;;;;22.80;20.50;;;;;;;;;;5060602;28;20217;-63
2021/10/30 08:45:52;;;;;;;20.47;18.33;;;;;;;;;;5065586;28;20479;-63
2021/10/30 08:48:21;;;;;;;20.67;18.57;;;;;;;;;;5063011;28;20468;-63
2021/10/30 08:50:48;;;;;;;20.27;18.37;;;;;;;;;;5055216;28;20459;-63
2021/10/30 08:53:13;;;;;;;23.43;19.93;;;;;;;;;;5060365;28;20596;-63
2021/10/30 08:55:38;;;;;;;20.77;18.67;;;;;;;;;;5070672;28;20534;-63
2021/10/30 08:58:09;;;;;;;21.43;19.27;;;;;;;;;;5060604;28;20658;-62
2021/10/30 09:00:42;;;;;;;21.80;19.50;;;;;;;;;;5063296;28;20301;-63
2021/10/30 09:03:10;;;;;;;20.33;18.13;;;;;;;;;;5067668;28;20474;-64
2021/10/30 09:05:36;;;;;;;21.20;18.97;;;;;;;;;;5065963;28;20466;-62
2021/10/30 09:08:04;;;;;;;21.77;19.47;;;;;;;;;;5060812;28;20474;-63
2021/10/30 09:10:33;;;;;;;20.00;18.10;;;;;;;;;;5060900;28;20472;-63
2021/10/30 09:13:01;;;;;;;20.17;18.10;;;;;;;;;;5067332;28;20939;-62
2021/10/30 09:15:40;;;;;;;21.50;19.23;;;;;;;;;;5066905;28;20576;-62
2021/10/30 09:18:23;;;;;;;19.07;17.27;;;;;;;;;;5062628;28;20993;-63
2021/10/30 09:20:49;;;;;;;21.27;18.97;;;;;;;;;;5060049;28;20501;-63
2021/10/30 09:23:20;;;;;;;21.27;18.27;;;;;;;;;;5062594;28;20452;-63
2021/10/30 09:25:58;;;;;;;19.27;17.37;;;;;;;;;;5067459;28;20468;-64
2021/10/30 09:28:24;;;;;;;20.07;18.17;;;;;;;;;;5065552;28;20774;-64
2021/10/30 09:30:59;;;;;;;18.97;16.97;;;;;;;;;;5059365;28;20470;-63
2021/10/30 09:33:27;;;;;;;23.93;17.80;;;;;;;;;;5060289;28;20426;-63
2021/10/30 09:35:53;;;;;;;20.03;17.90;;;;;;;;;;5066074;28;20505;-63
2021/10/30 09:38:35;;;;;;;20.00;18.00;;;;;;;;;;5066805;28;20568;-63
2021/10/30 09:41:03;;;;;;;20.60;17.53;;;;;;;;;;5063077;28;20224;-63
2021/10/30 09:43:28;;;;;;;21.80;18.57;;;;;;;;;;5059890;28;20462;-63
2021/10/30 09:46:02;;;;;;;20.97;18.67;;;;;;;;;;5046055;28;20804;-64
2021/10/30 09:48:27;;;;;;;17.70;15.90;;;;;;;;;;5065070;28;20559;-64
2021/10/30 09:51:02;;;;;;;17.37;15.57;;;;;;;;;;5064815;28;20481;-63
2021/10/30 09:53:29;;;;;;;20.67;18.50;;;;;;;;;;5059892;28;20247;-63
2021/10/30 09:56:00;;;;;;;20.30;18.20;;;;;;;;;;5061050;28;20903;-63
2021/10/30 09:58:28;;;;;;;20.93;18.57;;;;;;;;;;5066601;28;20467;-63
2021/10/30 10:00:55;;;;;;;20.30;18.30;;;;;;;;;;5066705;28;20549;-63
2021/10/30 10:03:22;;;;;;;18.97;17.20;;;;;;;;;;5060009;28;20474;-64
2021/10/30 10:05:47;;;;;;;18.17;16.37;;;;;;;;;;5059745;28;20917;-63
2021/10/30 10:08:12;;;;;;;17.87;16.27;;;;;;;;;;5064958;28;20466;-63
2021/10/30 10:10:38;;;;;;;17.43;15.60;;;;;;;;;;5065638;28;20220;-63
2021/10/30 10:13:03;;;;;;;18.47;16.67;;;;;;;;;;5060432;28;20239;-64
2021/10/30 10:15:30;;;;;;;17.50;16.00;;;;;;;;;;5059537;28;20217;-64
2021/10/30 10:17:58;;;;;;;18.67;16.80;;;;;;;;;;5065591;28;20661;-65
2021/10/30 10:20:24;;;;;;;19.07;17.10;;;;;;;;;;5066481;28;20462;-63
2021/10/30 10:22:49;;;;;;;19.23;17.30;;;;;;;;;;5060672;28;20945;-63
2021/10/30 10:25:34;;;;;;;19.60;16.97;;;;;;;;;;5059248;28;20312;-64
2021/10/30 10:28:36;;;;;;;17.50;15.90;;;;;;;;;;5063652;28;20228;-64
2021/10/30 10:31:24;;;;;;;18.90;17.00;;;;;;;;;;5048854;28;20466;-63
2021/10/30 10:34:39;;;;;;;18.17;16.20;;;;;;;;;;5059435;28;20466;-63
2021/10/30 10:37:10;;;;;;;19.20;15.23;;;;;;;;;;5058398;28;20498;-64
2021/10/30 10:39:37;;;;;;;17.90;16.10;;;;;;;;;;5061480;28;20467;-64
2021/10/30 10:42:03;;;;;;;18.27;16.57;;;;;;;;;;5065951;28;20468;-63
2021/10/30 10:44:28;;;;;;;17.77;16.10;;;;;;;;;;5063720;28;20521;-64
2021/10/30 10:46:58;;;;;;;17.93;16.13;;;;;;;;;;5059227;28;20533;-63
2021/10/30 10:49:33;;;;;;;16.80;15.13;;;;;;;;;;5059628;28;20787;-63
2021/10/30 10:52:18;;;;;;;17.00;15.27;;;;;;;;;;5046499;28;20945;-64
2021/10/30 10:54:52;;;;;;;17.40;15.80;;;;;;;;;;5063118;28;20455;-64
2021/10/30 10:57:21;;;;;;;18.20;16.30;;;;;;;;;;5065564;28;22026;-64
2021/10/30 10:59:57;;;;;;;17.17;15.47;;;;;;;;;;5063224;28;20461;-63
2021/10/30 11:02:28;;;;;;;18.20;16.50;;;;;;;;;;5063869;28;20443;-63
2021/10/30 11:05:08;;;;;;;18.07;16.37;;;;;;;;;;5069912;28;20802;-63
2021/10/30 11:07:38;;;;;;;17.90;16.10;;;;;;;;;;5069973;28;20941;-63
2021/10/30 11:10:08;;;;;;;17.40;15.73;;;;;;;;;;5064475;28;20542;-64
2021/10/30 11:12:34;;;;;;;17.00;15.30;;;;;;;;;;5062907;28;20546;-64
2021/10/30 11:15:08;;;;;;;18.13;16.33;;;;;;;;;;5066719;28;20543;-63
2021/10/30 11:17:44;;;;;;;16.37;14.77;;;;;;;;;;5068816;28;20241;-64
2021/10/30 11:20:17;;;;;;;16.80;14.57;;;;;;;;;;5066245;28;20488;-63
2021/10/30 11:23:00;;;;;;;17.00;15.20;;;;;;;;;;5062849;28;20458;-63
2021/10/30 11:25:29;;;;;;;17.10;15.40;;;;;;;;;;5062335;28;20798;-64
2021/10/30 11:27:56;;;;;;;17.20;15.47;;;;;;;;;;5067262;28;20463;-63
2021/10/30 11:30:32;;;;;;;16.03;14.53;;;;;;;;;;5069195;28;20466;-63
2021/10/30 11:33:22;;;;;;;15.70;14.20;;;;;;;;;;5064938;28;20447;-63
2021/10/30 11:36:01;;;;;;;17.13;15.47;;;;;;;;;;5062020;28;20454;-64
2021/10/30 11:38:28;;;;;;;15.80;14.10;;;;;;;;;;5062569;28;20447;-64
2021/10/30 11:40:58;;;;;;;17.50;15.80;;;;;;;;;;5067822;28;20547;-64
2021/10/30 11:43:28;;;;;;;16.47;14.87;;;;;;;;;;5068779;28;20473;-63
2021/10/30 11:45:59;;;;;;;16.50;14.80;;;;;;;;;;5062933;28;20501;-64
2021/10/30 11:48:41;;;;;;;16.70;15.10;;;;;;;;;;5055508;28;20518;-63
2021/10/30 11:51:11;;;;;;;16.83;15.13;;;;;;;;;;5061738;28;20457;-64
2021/10/30 11:53:37;;;;;;;16.30;14.60;;;;;;;;;;5049024;28;20821;-64
2021/10/30 11:56:08;;;;;;;16.23;14.73;;;;;;;;;;5061659;28;20452;-63
2021/10/30 11:58:38;;;;;;;15.67;14.27;;;;;;;;;;5050622;28;20462;-63
2021/10/30 12:01:27;;;;;;;16.73;15.13;;;;;;;;;;5061708;28;20463;-64
2021/10/30 12:03:54;;;;;;;18.00;16.20;;;;;;;;;;5063882;28;20563;-63
2021/10/30 12:06:20;;;;;;;16.50;14.80;;;;;;;;;;5068572;28;20907;-65
2021/10/30 12:08:45;;;;;;;18.43;16.67;;;;;;;;;;5066097;28;20546;-64
2021/10/30 12:11:11;;;;;;;16.87;15.17;;;;;;;;;;5061376;28;20617;-64
2021/10/30 12:13:36;;;;;;;20.30;17.10;;;;;;;;;;5062895;28;20221;-64
2021/10/30 12:16:02;;;;;;;15.87;14.37;;;;;;;;;;5067325;28;20664;-64
2021/10/30 12:18:28;;;;;;;17.40;15.27;;;;;;;;;;5066053;28;20220;-64
2021/10/30 12:20:56;;;;;;;17.03;15.40;;;;;;;;;;5060912;28;20220;-64
2021/10/30 12:23:21;;;;;;;17.60;15.77;;;;;;;;;;5063967;28;20460;-65
2021/10/30 12:25:46;;;;;;;17.30;15.70;;;;;;;;;;5067980;28;20543;-63
2021/10/30 12:28:12;;;;;;;18.20;16.33;;;;;;;;;;5066039;28;20220;-64
2021/10/30 12:30:37;;;;;;;17.27;15.63;;;;;;;;;;5061603;28;20220;-63
2021/10/30 12:33:16;;;;;;;15.97;14.57;;;;;;;;;;5063703;28;20786;-63
2021/10/30 12:35:44;;;;;;;19.17;16.90;;;;;;;;;;5068305;28;20303;-63
2021/10/30 12:38:21;;;;;;;16.90;15.20;;;;;;;;;;5067220;28;20443;-63
2021/10/30 12:40:47;;;;;;;16.33;14.73;;;;;;;;;;5049194;28;20455;-63
2021/10/30 12:43:18;;;;;;;18.77;16.50;;;;;;;;;;5061504;28;20479;-63
2021/10/30 12:45:57;;;;;;;17.23;15.63;;;;;;;;;;5066749;28;21016;-63
2021/10/30 12:48:25;;;;;;;18.57;16.40;;;;;;;;;;5063405;28;20551;-64
2021/10/30 12:50:59;;;;;;;17.63;15.93;;;;;;;;;;5055833;28;20455;-64
2021/10/30 12:53:35;;;;;;;18.13;15.40;;;;;;;;;;5060999;28;20537;-63
2021/10/30 12:56:21;;;;;;;18.03;15.93;;;;;;;;;;5059973;28;20435;-63
2021/10/30 12:58:55;;;;;;;16.70;15.00;;;;;;;;;;5051165;28;20986;-64
2021/10/30 13:01:25;;;;;;;17.97;15.30;;;;;;;;;;5060728;28;20845;-64
2021/10/30 13:04:00;;;;;;;16.07;14.47;;;;;;;;;;5063183;28;20562;-63
2021/10/30 13:06:27;;;;;;;17.70;15.77;;;;;;;;;;5067774;28;20460;-64
2021/10/30 13:08:53;;;;;;;16.47;14.97;;;;;;;;;;5065911;28;20485;-63
2021/10/30 13:11:19;;;;;;;19.13;17.07;;;;;;;;;;5060662;28;20546;-63
2021/10/30 13:13:45;;;;;;;19.37;17.47;;;;;;;;;;5061680;28;20463;-63
2021/10/30 13:16:11;;;;;;;18.73;16.27;;;;;;;;;;5066939;28;20455;-63
2021/10/30 13:18:36;;;;;;;16.60;15.03;;;;;;;;;;5065971;28;20952;-64
2021/10/30 13:21:02;;;;;;;18.40;15.60;;;;;;;;;;5060097;28;20256;-63
2021/10/30 13:23:28;;;;;;;16.53;14.83;;;;;;;;;;5062104;28;20232;-63
2021/10/30 13:25:53;;;;;;;17.80;15.60;;;;;;;;;;5066675;28;20228;-63
2021/10/30 13:28:18;;;;;;;18.60;16.70;;;;;;;;;;5066104;28;20526;-62
2021/10/30 13:30:44;;;;;;;17.60;15.13;;;;;;;;;;5059179;28;20220;-63
2021/10/30 13:33:09;;;;;;;17.07;15.40;;;;;;;;;;5062617;28;20213;-62
2021/10/30 13:35:34;;;;;;;16.77;15.10;;;;;;;;;;5067606;28;20209;-63
2021/10/30 13:38:00;;;;;;;18.50;15.93;;;;;;;;;;5064817;28;20220;-63
2021/10/30 13:40:25;;;;;;;16.80;15.27;;;;;;;;;;5060004;28;20552;-62
2021/10/30 13:42:50;;;;;;;16.20;14.60;;;;;;;;;;5062469;28;20220;-62
2021/10/30 13:45:15;;;;;;;18.37;15.07;;;;;;;;;;5067187;28;20316;-62
2021/10/30 13:47:41;;;;;;;15.97;14.40;;;;;;;;;;5064200;28;20234;-64
2021/10/30 13:50:06;;;;;;;15.87;14.37;;;;;;;;;;5046734;28;20655;-63
2021/10/30 13:52:31;;;;;;;14.27;12.77;;;;;;;;;;5062377;28;20221;-63
2021/10/30 13:54:57;;;;;;;16.60;14.97;;;;;;;;;;5066523;28;20217;-64
2021/10/30 13:57:22;;;;;;;15.33;13.83;;;;;;;;;;5064940;28;20270;-63
2021/10/30 13:59:47;;;;;;;15.23;13.43;;;;;;;;;;5059830;28;20295;-63
2021/10/30 14:02:13;;;;;;;15.90;14.30;;;;;;;;;;5062584;28;20217;-63
2021/10/30 14:04:39;;;;;;;17.00;15.43;;;;;;;;;;5066822;28;20371;-61
2021/10/30 14:07:04;;;;;;;15.73;14.23;;;;;;;;;;5063658;28;20479;-62
2021/10/30 14:09:29;;;;;;;14.50;13.10;;;;;;;;;;5059834;28;20546;-63
2021/10/30 14:11:55;;;;;;;14.67;13.17;;;;;;;;;;5061245;28;20311;-61
2021/10/30 14:14:20;;;;;;;15.13;13.70;;;;;;;;;;5065983;28;20664;-63
2021/10/30 14:16:45;;;;;;;17.37;15.57;;;;;;;;;;5063146;28;20244;-64